createdAt,value
2022-08-31T00:02:28.781Z,17.90
2022-08-31T00:05:53.878Z,17.90
2022-08-31T00:08:20.699Z,17.90
2022-08-31T00:10:49.586Z,17.90
2022-08-31T00:13:18.102Z,17.80
2022-08-31T00:15:45.145Z,17.70
2022-08-31T00:18:12.097Z,17.70
2022-08-31T00:20:39.361Z,17.80
2022-08-31T00:23:08.951Z,17.80
2022-08-31T00:25:36.700Z,17.80
2022-08-31T00:28:07.831Z,17.90
2022-08-31T00:30:35.175Z,17.80
2022-08-31T00:33:02.473Z,17.60
2022-08-31T00:35:31.062Z,17.60
2022-08-31T00:37:58.094Z,17.60
2022-08-31T00:40:46.435Z,17.70
2022-08-31T00:43:37.731Z,17.60
2022-08-31T00:46:04.889Z,17.60
2022-08-31T00:48:31.744Z,17.50
2022-08-31T00:50:58.843Z,17.50
2022-08-31T00:53:39.936Z,17.50
2022-08-31T00:56:08.925Z,17.60
2022-08-31T00:58:36.158Z,17.60
2022-08-31T01:01:05.099Z,17.50
2022-08-31T01:03:32.013Z,17.40
2022-08-31T01:06:13.065Z,17.40
2022-08-31T01:08:39.939Z,17.40
2022-08-31T01:15:01.733Z,17.50
2022-08-31T01:21:41.727Z,17.70
2022-08-31T01:27:59.555Z,17.40
2022-08-31T01:34:25.971Z,17.20
2022-08-31T01:36:53.289Z,17.30
2022-08-31T01:39:40.251Z,17.50
2022-08-31T01:46:13.272Z,17.60
2022-08-31T01:52:35.882Z,17.40
2022-08-31T01:55:03.701Z,17.20
2022-08-31T01:58:29.980Z,17.00
2022-08-31T02:00:56.997Z,16.90
2022-08-31T02:03:23.826Z,16.80
2022-08-31T02:05:50.652Z,16.60
2022-08-31T02:09:04.516Z,16.70
2022-08-31T02:11:31.353Z,16.70
2022-08-31T02:13:58.930Z,16.60
2022-08-31T02:16:33.733Z,16.60
2022-08-31T02:19:00.941Z,16.60
2022-08-31T02:21:55.215Z,16.60
2022-08-31T02:28:08.287Z,16.60
2022-08-31T02:34:17.275Z,16.70
2022-08-31T02:36:45.409Z,16.80
2022-08-31T02:43:00.722Z,16.80
2022-08-31T02:45:27.527Z,16.70
2022-08-31T02:47:54.540Z,16.70
2022-08-31T02:50:21.600Z,16.60
2022-08-31T02:52:48.607Z,16.60
2022-08-31T02:55:15.470Z,16.50
2022-08-31T02:57:42.273Z,16.50
2022-08-31T03:00:10.667Z,16.50
2022-08-31T03:02:37.514Z,16.40
2022-08-31T03:05:08.093Z,16.50
2022-08-31T03:07:36.695Z,16.60
2022-08-31T03:10:06.048Z,16.70
2022-08-31T03:12:32.880Z,16.80
2022-08-31T03:14:59.749Z,16.80
2022-08-31T03:17:26.647Z,16.80
2022-08-31T03:20:01.098Z,16.80
2022-08-31T03:22:28.814Z,16.70
2022-08-31T03:24:56.148Z,16.60
2022-08-31T03:27:24.641Z,16.50
2022-08-31T03:30:19.147Z,16.40
2022-08-31T03:32:46.120Z,16.30
2022-08-31T03:35:14.743Z,16.30
2022-08-31T03:37:42.105Z,16.20
2022-08-31T03:40:09.655Z,16.20
2022-08-31T03:43:26.938Z,16.20
2022-08-31T03:45:54.462Z,16.00
2022-08-31T03:48:21.372Z,16.00
2022-08-31T03:50:48.206Z,16.00
2022-08-31T03:53:15.104Z,16.10
2022-08-31T03:55:43.859Z,16.10
2022-08-31T03:58:11.967Z,15.90
2022-08-31T04:00:40.208Z,15.90
2022-08-31T04:03:56.992Z,15.90
2022-08-31T04:06:23.822Z,15.90
2022-08-31T04:08:50.658Z,15.90
2022-08-31T04:15:07.339Z,16.00
2022-08-31T04:17:34.766Z,16.00
2022-08-31T04:20:01.560Z,16.00
2022-08-31T04:22:28.388Z,16.00
2022-08-31T04:24:55.329Z,16.00
2022-08-31T04:27:22.199Z,16.00
2022-08-31T04:33:31.784Z,15.90
2022-08-31T04:35:58.578Z,15.80
2022-08-31T04:38:25.443Z,15.80
2022-08-31T04:40:52.891Z,15.80
2022-08-31T04:43:19.839Z,15.80
2022-08-31T04:45:51.541Z,15.90
2022-08-31T04:48:18.364Z,16.00
2022-08-31T04:50:45.186Z,16.00
2022-08-31T04:53:12.049Z,16.10
2022-08-31T04:55:43.470Z,16.00
2022-08-31T04:58:12.803Z,16.00
2022-08-31T05:08:55.155Z,15.90
2022-08-31T05:15:04.049Z,16.00
2022-08-31T05:21:30.137Z,16.20
2022-08-31T05:23:58.805Z,16.40
2022-08-31T05:26:31.675Z,16.50
2022-08-31T05:29:00.133Z,16.50
2022-08-31T05:31:29.094Z,16.50
2022-08-31T05:33:56.800Z,16.60
2022-08-31T05:40:05.555Z,16.80
2022-08-31T05:46:15.270Z,16.80
2022-08-31T05:48:42.523Z,16.90
2022-08-31T05:51:20.196Z,17.00
2022-08-31T05:53:47.999Z,17.20
2022-08-31T05:56:25.111Z,17.20
2022-08-31T05:58:54.236Z,17.30
2022-08-31T06:01:42.571Z,17.40
2022-08-31T06:04:10.566Z,17.40
2022-08-31T06:06:38.275Z,17.50
2022-08-31T06:09:07.435Z,17.50
2022-08-31T06:11:35.405Z,17.60
2022-08-31T06:14:11.453Z,17.60
2022-08-31T06:16:39.345Z,17.60
2022-08-31T06:19:07.397Z,17.60
2022-08-31T06:21:38.466Z,17.70
2022-08-31T06:24:07.564Z,17.80
2022-08-31T06:26:36.015Z,17.80
2022-08-31T06:29:06.136Z,18.00
2022-08-31T06:31:38.713Z,18.10
2022-08-31T06:34:07.205Z,18.10
2022-08-31T06:36:34.812Z,18.20
2022-08-31T06:39:03.043Z,18.20
2022-08-31T06:41:36.680Z,18.20
2022-08-31T06:44:07.917Z,18.20
2022-08-31T06:46:37.191Z,18.20
2022-08-31T06:49:05.224Z,18.20
2022-08-31T06:51:38.093Z,18.10
2022-08-31T06:56:58.565Z,18.10
2022-08-31T06:59:28.934Z,18.10
2022-08-31T07:01:57.945Z,18.10
2022-08-31T07:04:24.864Z,18.10
2022-08-31T07:06:51.705Z,18.20
2022-08-31T07:09:18.940Z,18.20
2022-08-31T07:11:49.718Z,18.10
2022-08-31T07:14:19.508Z,18.20
2022-08-31T07:16:46.594Z,18.30
2022-08-31T07:19:14.568Z,18.40
2022-08-31T07:21:44.700Z,18.40
2022-08-31T07:24:13.620Z,18.40
2022-08-31T07:26:46.586Z,18.40
2022-08-31T07:29:16.020Z,18.40
2022-08-31T07:31:50.385Z,18.50
2022-08-31T07:34:25.789Z,18.50
2022-08-31T07:37:16.140Z,18.50
2022-08-31T07:40:07.128Z,18.60
2022-08-31T07:42:41.153Z,18.70
2022-08-31T07:45:12.630Z,18.70
2022-08-31T07:47:47.053Z,18.70
2022-08-31T07:50:16.628Z,18.70
2022-08-31T07:52:49.324Z,18.60
2022-08-31T07:55:18.169Z,18.70
2022-08-31T07:57:45.632Z,18.60
2022-08-31T08:00:15.416Z,18.60
2022-08-31T08:02:46.357Z,18.60
2022-08-31T08:05:27.554Z,18.60
2022-08-31T08:07:58.767Z,18.70
2022-08-31T08:10:26.331Z,18.80
2022-08-31T08:13:04.779Z,18.80
2022-08-31T08:15:35.830Z,18.80
2022-08-31T08:18:04.675Z,18.80
2022-08-31T08:20:37.249Z,18.80
2022-08-31T08:23:18.431Z,18.80
2022-08-31T08:25:54.043Z,18.90
2022-08-31T08:31:15.870Z,19.00
2022-08-31T08:33:43.595Z,18.90
2022-08-31T08:36:11.284Z,19.00
2022-08-31T08:38:44.036Z,19.00
2022-08-31T08:41:20.806Z,19.10
2022-08-31T08:43:53.561Z,19.10
2022-08-31T08:47:37.923Z,19.10
2022-08-31T08:49:40.477Z,19.30
2022-08-31T08:52:30.203Z,19.30
2022-08-31T08:55:02.065Z,19.40
2022-08-31T08:57:34.649Z,19.60
2022-08-31T09:00:08.340Z,19.70
2022-08-31T09:03:02.149Z,19.80
2022-08-31T09:05:38.455Z,19.90
2022-08-31T09:08:14.383Z,20.00
2022-08-31T09:10:45.808Z,20.00
2022-08-31T09:13:28.856Z,20.10
2022-08-31T09:16:14.268Z,20.10
2022-08-31T09:18:54.042Z,20.20
2022-08-31T09:21:25.572Z,20.20
2022-08-31T09:24:03.872Z,20.40
2022-08-31T09:26:35.565Z,20.50
2022-08-31T09:29:03.950Z,20.50
2022-08-31T09:31:42.392Z,20.40
2022-08-31T09:34:30.771Z,20.50
2022-08-31T09:37:11.659Z,20.90
2022-08-31T09:39:38.548Z,21.20
2022-08-31T09:42:31.579Z,21.30
2022-08-31T09:45:11.745Z,21.30
2022-08-31T09:47:51.296Z,21.60
2022-08-31T09:54:35.477Z,22.10
2022-08-31T09:57:05.400Z,22.10
2022-08-31T09:59:38.003Z,22.00
2022-08-31T10:02:33.464Z,22.10
2022-08-31T10:05:06.687Z,21.80
2022-08-31T10:07:45.610Z,21.80
2022-08-31T10:14:43.674Z,21.60
2022-08-31T10:17:32.140Z,21.60
2022-08-31T10:23:58.581Z,21.90
2022-08-31T10:26:36.827Z,22.30
2022-08-31T10:29:20.746Z,22.40
2022-08-31T10:31:54.953Z,22.40
2022-08-31T10:34:48.952Z,22.30
2022-08-31T10:37:19.376Z,22.20
2022-08-31T10:39:50.565Z,22.10
2022-08-31T10:42:39.354Z,22.10
2022-08-31T10:45:34.079Z,22.10
2022-08-31T10:48:05.068Z,22.10
2022-08-31T10:50:49.231Z,22.00
2022-08-31T10:53:34.878Z,21.80
2022-08-31T10:56:49.735Z,22.00
2022-08-31T10:59:27.340Z,22.30
2022-08-31T11:02:17.567Z,22.50
2022-08-31T11:05:05.656Z,22.80
2022-08-31T11:07:58.081Z,23.10
2022-08-31T11:10:54.769Z,23.20
2022-08-31T11:13:38.415Z,23.30
2022-08-31T11:16:33.013Z,22.90
2022-08-31T11:19:15.878Z,22.90
2022-08-31T11:21:51.015Z,22.50
2022-08-31T11:24:32.680Z,22.50
2022-08-31T11:27:26.464Z,22.90
2022-08-31T11:30:02.741Z,22.90
2022-08-31T11:32:36.043Z,22.90
2022-08-31T11:35:08.536Z,22.60
2022-08-31T11:37:54.571Z,22.60
2022-08-31T11:40:42.585Z,22.60
2022-08-31T11:43:35.471Z,22.40
2022-08-31T11:46:34.373Z,22.30
2022-08-31T11:49:01.326Z,22.20
2022-08-31T11:51:44.898Z,22.30
2022-08-31T11:54:15.943Z,22.30
2022-08-31T11:56:47.367Z,22.20
2022-08-31T11:59:32.777Z,22.00
2022-08-31T12:02:21.393Z,21.90
2022-08-31T12:04:58.600Z,21.90
2022-08-31T12:07:30.315Z,21.90
2022-08-31T12:10:00.205Z,21.80
2022-08-31T12:12:51.285Z,21.70
2022-08-31T12:15:48.139Z,21.80
2022-08-31T12:18:35.241Z,21.80
2022-08-31T12:21:28.199Z,21.80
2022-08-31T12:24:08.506Z,21.80
2022-08-31T12:26:45.705Z,21.50
2022-08-31T12:29:26.760Z,21.50
2022-08-31T12:32:29.236Z,21.50
2022-08-31T12:35:18.360Z,21.50
2022-08-31T12:37:45.480Z,21.40
2022-08-31T12:40:18.069Z,21.40
2022-08-31T12:43:00.208Z,21.30
2022-08-31T12:45:45.834Z,21.20
2022-08-31T12:48:39.938Z,21.20
2022-08-31T12:51:28.392Z,21.20
2022-08-31T12:54:29.043Z,21.20
2022-08-31T12:57:26.940Z,21.10
2022-08-31T13:00:13.109Z,21.10
2022-08-31T13:02:45.318Z,21.20
2022-08-31T13:05:28.601Z,21.10
2022-08-31T13:07:55.899Z,21.10
2022-08-31T13:10:25.471Z,21.00
2022-08-31T13:12:55.905Z,21.00
2022-08-31T13:15:39.353Z,21.00
2022-08-31T13:18:16.340Z,21.00
2022-08-31T13:20:45.607Z,20.90
2022-08-31T13:23:34.904Z,20.90
2022-08-31T13:26:19.219Z,20.80
2022-08-31T13:28:51.070Z,20.70
2022-08-31T13:31:32.779Z,20.60
2022-08-31T13:34:00.939Z,20.60
2022-08-31T13:36:33.249Z,20.60
2022-08-31T13:39:34.860Z,20.60
2022-08-31T13:42:20.139Z,20.50
2022-08-31T13:44:54.219Z,20.50
2022-08-31T13:47:24.050Z,20.30
2022-08-31T13:49:55.327Z,20.20
2022-08-31T13:52:31.706Z,20.10
2022-08-31T13:55:01.916Z,20.00
2022-08-31T13:57:34.861Z,20.00
2022-08-31T14:00:39.817Z,19.80
2022-08-31T14:03:46.786Z,19.90
2022-08-31T14:06:39.267Z,19.90
2022-08-31T14:09:17.926Z,19.90
2022-08-31T14:12:04.414Z,19.80
2022-08-31T14:14:41.557Z,19.80
2022-08-31T14:17:16.254Z,19.80
2022-08-31T14:19:44.551Z,19.70
2022-08-31T14:22:32.490Z,19.80
2022-08-31T14:25:00.874Z,19.70
2022-08-31T14:27:29.526Z,19.60
2022-08-31T14:29:58.418Z,19.50
2022-08-31T14:32:25.875Z,19.40
2022-08-31T14:34:53.391Z,19.40
2022-08-31T14:37:22.228Z,19.50
2022-08-31T14:39:51.368Z,19.50
2022-08-31T14:42:25.667Z,19.50
2022-08-31T14:45:18.714Z,19.50
2022-08-31T14:47:51.944Z,19.10
2022-08-31T14:50:23.586Z,19.00
2022-08-31T14:52:55.387Z,18.80
2022-08-31T14:55:23.112Z,18.80
2022-08-31T14:57:58.072Z,18.80
2022-08-31T15:00:25.819Z,18.80
2022-08-31T15:03:14.138Z,18.80
2022-08-31T15:05:42.603Z,18.90
2022-08-31T15:08:09.800Z,19.00
2022-08-31T15:10:38.155Z,19.00
2022-08-31T15:17:01.087Z,19.00
2022-08-31T15:23:16.035Z,19.00
2022-08-31T15:29:51.736Z,18.90
2022-08-31T15:32:18.730Z,18.20
2022-08-31T15:38:01.268Z,18.10
2022-08-31T15:40:39.092Z,18.20
2022-08-31T15:43:14.210Z,18.10
2022-08-31T15:45:41.878Z,18.00
2022-08-31T15:48:35.164Z,17.90
2022-08-31T15:51:02.021Z,17.90
2022-08-31T15:53:30.963Z,18.10
2022-08-31T15:56:05.824Z,18.20
2022-08-31T15:58:34.412Z,18.30
2022-08-31T16:01:01.492Z,18.30
2022-08-31T16:03:34.939Z,18.20
2022-08-31T16:06:04.121Z,18.00
2022-08-31T16:08:31.244Z,17.70
2022-08-31T16:10:58.034Z,17.50
2022-08-31T16:13:24.850Z,17.20
2022-08-31T16:15:52.659Z,17.10
2022-08-31T16:18:25.367Z,17.30
2022-08-31T16:20:52.213Z,17.40
2022-08-31T16:23:19.455Z,17.50
2022-08-31T16:25:48.596Z,17.60
2022-08-31T16:28:20.528Z,17.50
2022-08-31T16:30:48.078Z,17.50
2022-08-31T16:33:14.878Z,17.40
2022-08-31T16:35:44.654Z,17.30
2022-08-31T16:38:12.097Z,17.40
2022-08-31T16:40:39.021Z,17.40
2022-08-31T16:43:05.944Z,17.40
2022-08-31T16:45:32.943Z,17.20
2022-08-31T16:48:18.501Z,17.10
2022-08-31T16:50:48.818Z,17.10
2022-08-31T16:53:18.238Z,17.20
2022-08-31T16:55:47.493Z,17.20
2022-08-31T16:58:21.611Z,17.40
2022-08-31T17:01:03.444Z,17.50
2022-08-31T17:03:30.275Z,17.50
2022-08-31T17:05:57.064Z,17.60
2022-08-31T17:08:23.888Z,17.60
2022-08-31T17:10:51.326Z,17.60
2022-08-31T17:13:18.242Z,17.50
2022-08-31T17:15:45.083Z,17.50
2022-08-31T17:18:11.916Z,17.40
2022-08-31T17:20:42.185Z,17.40
2022-08-31T17:23:10.255Z,17.40
2022-08-31T17:25:37.154Z,17.40
2022-08-31T17:28:07.713Z,17.40
2022-08-31T17:30:34.761Z,17.30
2022-08-31T17:33:01.625Z,17.10
2022-08-31T17:35:29.501Z,17.10
2022-08-31T17:37:58.367Z,17.20
2022-08-31T17:40:25.628Z,17.20
2022-08-31T17:42:55.022Z,17.20
2022-08-31T17:45:25.036Z,17.30
2022-08-31T17:47:54.820Z,17.30
2022-08-31T17:50:21.867Z,17.20
2022-08-31T17:52:48.703Z,17.10
2022-08-31T17:55:15.728Z,17.20
2022-08-31T17:57:42.559Z,17.10
2022-08-31T18:00:10.186Z,17.10
2022-08-31T18:02:37.702Z,17.20
2022-08-31T18:05:09.765Z,17.10
2022-08-31T18:07:39.186Z,17.20
2022-08-31T18:10:06.444Z,17.20
2022-08-31T18:12:40.846Z,17.10
2022-08-31T18:15:09.785Z,17.10
2022-08-31T18:17:36.721Z,17.10
2022-08-31T18:20:04.790Z,17.00
2022-08-31T18:22:31.637Z,17.00
2022-08-31T18:24:58.501Z,17.00
2022-08-31T18:27:25.348Z,16.90
2022-08-31T18:29:52.711Z,16.90
2022-08-31T18:32:19.581Z,17.00
2022-08-31T18:34:47.405Z,16.90
2022-08-31T18:37:17.524Z,16.90
2022-08-31T18:40:13.426Z,16.90
2022-08-31T18:42:59.037Z,16.90
2022-08-31T18:45:28.091Z,16.80
2022-08-31T18:48:25.256Z,16.80
2022-08-31T18:50:47.445Z,16.80
2022-08-31T18:53:29.594Z,16.90
2022-08-31T18:56:10.546Z,16.80
2022-08-31T18:58:38.466Z,16.80
2022-08-31T19:01:05.949Z,16.50
2022-08-31T19:03:32.941Z,16.30
2022-08-31T19:05:59.766Z,16.30
2022-08-31T19:08:27.722Z,16.40
2022-08-31T19:10:57.258Z,16.50
2022-08-31T19:13:32.022Z,16.60
2022-08-31T19:16:03.594Z,16.50
2022-08-31T19:18:35.583Z,16.60
2022-08-31T19:21:20.694Z,16.60
2022-08-31T19:23:48.423Z,16.70
2022-08-31T19:26:39.634Z,16.70
2022-08-31T19:29:09.329Z,16.60
2022-08-31T19:31:38.548Z,16.50
2022-08-31T19:34:06.179Z,16.50
2022-08-31T19:36:34.682Z,16.50
2022-08-31T19:39:01.516Z,16.40
2022-08-31T19:41:28.600Z,16.40
2022-08-31T19:44:07.759Z,16.30
2022-08-31T19:46:36.163Z,16.40
2022-08-31T19:49:03.579Z,16.40
2022-08-31T19:51:31.525Z,16.40
2022-08-31T19:53:59.725Z,16.40
2022-08-31T19:56:30.454Z,16.40
2022-08-31T19:58:59.438Z,16.40
2022-08-31T20:01:32.875Z,16.40
2022-08-31T20:04:07.507Z,16.50
2022-08-31T20:06:34.434Z,16.40
2022-08-31T20:09:01.377Z,16.30
2022-08-31T20:11:30.383Z,16.30
2022-08-31T20:13:59.415Z,16.30
2022-08-31T20:16:33.775Z,16.30
2022-08-31T20:19:04.010Z,16.30
2022-08-31T20:21:35.045Z,16.30
2022-08-31T20:24:05.486Z,16.20
2022-08-31T20:26:36.224Z,16.30
2022-08-31T20:29:08.905Z,16.30
2022-08-31T20:31:41.923Z,16.30
2022-08-31T20:34:09.375Z,16.30
2022-08-31T20:36:40.245Z,16.30
2022-08-31T20:39:14.491Z,16.30
2022-08-31T20:41:48.225Z,16.20
2022-08-31T20:44:18.167Z,16.20
2022-08-31T20:47:16.023Z,16.20
2022-08-31T20:49:51.780Z,16.20
2022-08-31T20:52:18.628Z,16.10
2022-08-31T20:54:45.684Z,16.20
2022-08-31T20:57:14.011Z,16.10
2022-08-31T20:59:41.600Z,16.10
2022-08-31T21:02:09.910Z,16.10
2022-08-31T21:04:40.515Z,16.20
2022-08-31T21:07:12.060Z,16.20
2022-08-31T21:09:41.201Z,16.10
2022-08-31T21:12:10.236Z,16.10
2022-08-31T21:14:40.565Z,16.10
2022-08-31T21:17:08.060Z,16.10
2022-08-31T21:19:39.307Z,16.10
2022-08-31T21:22:09.355Z,16.10
2022-08-31T21:24:38.229Z,16.10
2022-08-31T21:27:10.963Z,16.10
2022-08-31T21:29:38.304Z,16.10
2022-08-31T21:32:09.104Z,15.90
2022-08-31T21:34:42.127Z,15.80
2022-08-31T21:37:17.971Z,16.00
2022-08-31T21:39:44.807Z,16.00
2022-08-31T21:42:11.698Z,16.10
2022-08-31T21:44:38.551Z,16.10
2022-08-31T21:47:07.907Z,16.10
2022-08-31T21:49:34.758Z,16.00
2022-08-31T21:52:02.139Z,16.00
2022-08-31T21:54:29.483Z,16.00
2022-08-31T21:56:59.365Z,16.00
2022-08-31T21:59:29.304Z,16.10
2022-08-31T22:02:00.438Z,16.10
2022-08-31T22:04:31.946Z,16.10
2022-08-31T22:06:59.704Z,16.10
2022-08-31T22:09:28.470Z,16.10
2022-08-31T22:11:58.020Z,16.10
2022-08-31T22:14:29.701Z,16.10
2022-08-31T22:16:58.143Z,16.10
2022-08-31T22:19:27.163Z,16.00
2022-08-31T22:22:01.248Z,16.10
2022-08-31T22:24:32.126Z,16.00
2022-08-31T22:27:02.521Z,16.00
2022-08-31T22:29:32.387Z,16.00
2022-08-31T22:32:03.188Z,16.00
2022-08-31T22:34:30.315Z,16.00
2022-08-31T22:36:57.650Z,16.00
2022-08-31T22:39:28.005Z,16.10
2022-08-31T22:41:56.063Z,16.10
2022-08-31T22:44:26.985Z,16.10
2022-08-31T22:46:56.240Z,16.10
2022-08-31T22:49:23.780Z,16.10
2022-08-31T22:51:50.660Z,16.00
2022-08-31T22:54:20.089Z,16.00
2022-08-31T22:56:47.609Z,16.00
2022-08-31T22:59:17.753Z,16.00
2022-08-31T23:01:49.341Z,16.00
2022-08-31T23:04:20.187Z,16.00
2022-08-31T23:06:49.182Z,16.00
2022-08-31T23:09:21.423Z,15.90
2022-08-31T23:11:50.199Z,16.00
2022-08-31T23:14:17.385Z,16.00
2022-08-31T23:16:46.685Z,16.00
2022-08-31T23:19:19.260Z,15.90
2022-08-31T23:21:52.681Z,15.80
2022-08-31T23:24:30.949Z,15.80
2022-08-31T23:27:04.209Z,15.80
2022-08-31T23:29:41.743Z,15.90
2022-08-31T23:32:13.412Z,15.80
2022-08-31T23:34:41.677Z,15.80
2022-08-31T23:37:09.853Z,15.80
2022-08-31T23:39:39.719Z,15.80
2022-08-31T23:42:09.455Z,15.80
2022-08-31T23:44:41.310Z,15.80
2022-08-31T23:47:08.550Z,15.80
2022-08-31T23:49:35.433Z,15.70
2022-08-31T23:52:02.459Z,15.70
2022-08-31T23:54:29.833Z,15.70
2022-08-31T23:56:57.941Z,15.70
2022-08-31T23:59:25.451Z,15.70
